sensor_id;sensor_type;location;lat;lon;timestamp;pressure;altitude;pressure_sealevel;temperature;humidity
70968;BME280;58629;48.808;8.820;2022-12-29T00:01:21;96684.53;;;7.05;83.37
70968;BME280;58629;48.808;8.820;2022-12-29T00:03:46;96673.53;;;7.13;82.63
70968;BME280;58629;48.808;8.820;2022-12-29T00:06:12;96672.97;;;7.29;82.10
70968;BME280;58629;48.808;8.820;2022-12-29T00:08:37;96663.84;;;7.37;81.58
70968;BME280;58629;48.808;8.820;2022-12-29T00:11:22;96663.44;;;7.38;81.14
70968;BME280;58629;48.808;8.820;2022-12-29T00:13:48;96656.31;;;7.39;80.31
70968;BME280;58629;48.808;8.820;2022-12-29T00:16:33;96646.41;;;7.46;80.44
70968;BME280;58629;48.808;8.820;2022-12-29T00:18:59;96650.59;;;7.44;79.95
70968;BME280;58629;48.808;8.820;2022-12-29T00:21:25;96644.25;;;7.38;80.61
70968;BME280;58629;48.808;8.820;2022-12-29T00:24:18;96651.06;;;7.35;80.25
70968;BME280;58629;48.808;8.820;2022-12-29T00:26:56;96647.00;;;7.31;80.57
70968;BME280;58629;48.808;8.820;2022-12-29T00:29:41;96644.66;;;7.36;80.84
70968;BME280;58629;48.808;8.820;2022-12-29T00:32:25;96645.13;;;7.28;81.24
70968;BME280;58629;48.808;8.820;2022-12-29T00:35:12;96643.66;;;7.27;81.59
70968;BME280;58629;48.808;8.820;2022-12-29T00:37:41;96641.75;;;7.27;81.05
70968;BME280;58629;48.808;8.820;2022-12-29T00:40:26;96640.69;;;7.25;82.21
70968;BME280;58629;48.808;8.820;2022-12-29T00:43:10;96642.56;;;7.24;82.22
70968;BME280;58629;48.808;8.820;2022-12-29T00:45:54;96640.28;;;7.26;82.24
70968;BME280;58629;48.808;8.820;2022-12-29T00:48:19;96641.75;;;7.27;82.87
70968;BME280;58629;48.808;8.820;2022-12-29T00:51:05;96640.22;;;7.30;83.50
70968;BME280;58629;48.808;8.820;2022-12-29T00:53:30;96636.06;;;7.32;82.53
70968;BME280;58629;48.808;8.820;2022-12-29T00:55:56;96643.91;;;7.36;82.77
70968;BME280;58629;48.808;8.820;2022-12-29T00:58:21;96643.09;;;7.42;81.89
70968;BME280;58629;48.808;8.820;2022-12-29T01:00:46;96648.50;;;7.58;81.24
70968;BME280;58629;48.808;8.820;2022-12-29T01:03:11;96655.97;;;7.63;81.01
70968;BME280;58629;48.808;8.820;2022-12-29T01:05:37;96649.91;;;7.66;81.41
70968;BME280;58629;48.808;8.820;2022-12-29T01:08:02;96649.44;;;7.71;81.15
70968;BME280;58629;48.808;8.820;2022-12-29T01:10:27;96643.34;;;7.78;81.68
70968;BME280;58629;48.808;8.820;2022-12-29T01:12:52;96645.44;;;7.86;81.48
70968;BME280;58629;48.808;8.820;2022-12-29T01:15:18;96651.41;;;7.90;80.79
70968;BME280;58629;48.808;8.820;2022-12-29T01:17:43;96648.41;;;7.92;81.04
70968;BME280;58629;48.808;8.820;2022-12-29T01:20:09;96658.59;;;7.90;80.86
70968;BME280;58629;48.808;8.820;2022-12-29T01:22:36;96649.94;;;7.89;80.55
70968;BME280;58629;48.808;8.820;2022-12-29T01:25:02;96652.16;;;7.91;80.64
70968;BME280;58629;48.808;8.820;2022-12-29T01:27:27;96649.88;;;7.93;80.79
70968;BME280;58629;48.808;8.820;2022-12-29T01:29:53;96654.25;;;8.03;79.81
70968;BME280;58629;48.808;8.820;2022-12-29T01:32:18;96655.63;;;8.11;79.36
70968;BME280;58629;48.808;8.820;2022-12-29T01:34:44;96655.56;;;8.15;78.88
70968;BME280;58629;48.808;8.820;2022-12-29T01:37:10;96654.94;;;8.34;78.81
70968;BME280;58629;48.808;8.820;2022-12-29T01:39:35;96661.75;;;8.31;78.30
70968;BME280;58629;48.808;8.820;2022-12-29T01:42:01;96663.63;;;8.31;78.44
70968;BME280;58629;48.808;8.820;2022-12-29T01:45:32;96653.84;;;8.31;79.48
70968;BME280;58629;48.808;8.820;2022-12-29T01:47:57;96648.16;;;8.33;78.82
70968;BME280;58629;48.808;8.820;2022-12-29T01:50:32;96653.00;;;8.34;78.60
70968;BME280;58629;48.808;8.820;2022-12-29T01:53:11;96658.00;;;8.29;79.11
70968;BME280;58629;48.808;8.820;2022-12-29T01:55:45;96638.41;;;8.30;79.20
70968;BME280;58629;48.808;8.820;2022-12-29T01:58:14;96642.09;;;8.36;78.62
70968;BME280;58629;48.808;8.820;2022-12-29T02:00:41;96643.34;;;8.28;79.03
70968;BME280;58629;48.808;8.820;2022-12-29T02:03:08;96625.66;;;8.25;79.40
70968;BME280;58629;48.808;8.820;2022-12-29T02:05:40;96635.78;;;8.30;78.40
70968;BME280;58629;48.808;8.820;2022-12-29T02:08:09;96639.88;;;8.31;78.57
70968;BME280;58629;48.808;8.820;2022-12-29T02:10:35;96623.66;;;8.32;78.26
70968;BME280;58629;48.808;8.820;2022-12-29T02:13:01;96626.13;;;8.43;78.29
70968;BME280;58629;48.808;8.820;2022-12-29T02:18:27;96629.94;;;8.61;76.68
70968;BME280;58629;48.808;8.820;2022-12-29T02:21:26;96640.69;;;8.70;77.20
70968;BME280;58629;48.808;8.820;2022-12-29T02:27:36;96640.88;;;9.38;71.58
70968;BME280;58629;48.808;8.820;2022-12-29T02:33:07;96621.59;;;9.57;70.76
70968;BME280;58629;48.808;8.820;2022-12-29T02:36:01;96613.44;;;9.68;71.14
70968;BME280;58629;48.808;8.820;2022-12-29T02:41:46;96626.16;;;9.73;70.14
70968;BME280;58629;48.808;8.820;2022-12-29T02:47:38;96630.22;;;9.94;68.80
70968;BME280;58629;48.808;8.820;2022-12-29T02:50:26;96618.41;;;9.82;69.79
70968;BME280;58629;48.808;8.820;2022-12-29T02:52:58;96624.00;;;9.68;71.51
70968;BME280;58629;48.808;8.820;2022-12-29T02:55:24;96624.56;;;9.59;71.89
70968;BME280;58629;48.808;8.820;2022-12-29T02:58:06;96624.22;;;9.57;71.56
70968;BME280;58629;48.808;8.820;2022-12-29T03:01:21;96620.19;;;9.69;70.91
70968;BME280;58629;48.808;8.820;2022-12-29T03:03:48;96612.19;;;9.56;71.84
70968;BME280;58629;48.808;8.820;2022-12-29T03:14:54;96595.78;;;9.45;72.81
70968;BME280;58629;48.808;8.820;2022-12-29T03:17:51;96597.97;;;9.50;71.97
70968;BME280;58629;48.808;8.820;2022-12-29T03:20:25;96584.56;;;9.41;73.25
70968;BME280;58629;48.808;8.820;2022-12-29T03:22:54;96586.44;;;9.41;73.16
70968;BME280;58629;48.808;8.820;2022-12-29T03:25:30;96584.66;;;9.38;72.66
70968;BME280;58629;48.808;8.820;2022-12-29T03:27:59;96577.38;;;9.42;73.29
70968;BME280;58629;48.808;8.820;2022-12-29T03:30:28;96571.19;;;9.32;72.84
70968;BME280;58629;48.808;8.820;2022-12-29T03:32:56;96580.66;;;9.30;73.71
70968;BME280;58629;48.808;8.820;2022-12-29T03:35:25;96570.97;;;9.23;73.66
70968;BME280;58629;48.808;8.820;2022-12-29T03:37:59;96575.22;;;9.21;73.55
70968;BME280;58629;48.808;8.820;2022-12-29T03:40:28;96573.28;;;9.21;73.29
70968;BME280;58629;48.808;8.820;2022-12-29T03:42:56;96570.41;;;9.16;73.31
70968;BME280;58629;48.808;8.820;2022-12-29T03:45:22;96575.13;;;9.24;72.94
70968;BME280;58629;48.808;8.820;2022-12-29T03:47:47;96572.63;;;9.17;73.65
70968;BME280;58629;48.808;8.820;2022-12-29T03:50:13;96578.72;;;9.14;73.58
70968;BME280;58629;48.808;8.820;2022-12-29T03:52:38;96574.34;;;9.08;73.98
70968;BME280;58629;48.808;8.820;2022-12-29T03:55:04;96580.56;;;8.98;74.69
70968;BME280;58629;48.808;8.820;2022-12-29T03:57:29;96584.47;;;8.93;75.65
70968;BME280;58629;48.808;8.820;2022-12-29T03:59:55;96573.16;;;8.93;75.20
70968;BME280;58629;48.808;8.820;2022-12-29T04:02:20;96567.38;;;8.98;74.92
70968;BME280;58629;48.808;8.820;2022-12-29T04:04:45;96577.69;;;8.92;75.61
70968;BME280;58629;48.808;8.820;2022-12-29T04:07:10;96590.53;;;8.90;74.98
70968;BME280;58629;48.808;8.820;2022-12-29T04:09:36;96584.25;;;8.84;75.59
70968;BME280;58629;48.808;8.820;2022-12-29T04:12:01;96588.44;;;8.82;76.13
70968;BME280;58629;48.808;8.820;2022-12-29T04:14:26;96588.06;;;8.83;76.37
70968;BME280;58629;48.808;8.820;2022-12-29T04:16:51;96591.81;;;8.82;76.30
70968;BME280;58629;48.808;8.820;2022-12-29T04:19:17;96594.88;;;8.81;76.33
70968;BME280;58629;48.808;8.820;2022-12-29T04:21:42;96582.97;;;8.92;75.86
70968;BME280;58629;48.808;8.820;2022-12-29T04:24:07;96574.22;;;8.95;75.83
70968;BME280;58629;48.808;8.820;2022-12-29T04:26:33;96581.75;;;8.97;75.63
70968;BME280;58629;48.808;8.820;2022-12-29T04:28:58;96572.78;;;9.10;75.71
70968;BME280;58629;48.808;8.820;2022-12-29T04:31:23;96572.56;;;9.21;74.98
70968;BME280;58629;48.808;8.820;2022-12-29T04:33:49;96565.69;;;9.23;74.85
70968;BME280;58629;48.808;8.820;2022-12-29T04:36:14;96564.56;;;9.24;75.17
70968;BME280;58629;48.808;8.820;2022-12-29T04:38:39;96561.94;;;9.40;74.09
70968;BME280;58629;48.808;8.820;2022-12-29T04:41:05;96559.34;;;9.37;74.72
70968;BME280;58629;48.808;8.820;2022-12-29T04:43:30;96571.97;;;9.29;74.83
70968;BME280;58629;48.808;8.820;2022-12-29T04:45:55;96573.72;;;9.20;75.44
70968;BME280;58629;48.808;8.820;2022-12-29T04:48:21;96571.91;;;9.17;75.99
70968;BME280;58629;48.808;8.820;2022-12-29T04:50:48;96566.34;;;9.11;76.33
70968;BME280;58629;48.808;8.820;2022-12-29T04:53:14;96550.81;;;9.13;76.34
70968;BME280;58629;48.808;8.820;2022-12-29T04:55:39;96549.13;;;9.23;75.49
70968;BME280;58629;48.808;8.820;2022-12-29T04:58:05;96556.09;;;9.13;76.44
70968;BME280;58629;48.808;8.820;2022-12-29T05:00:30;96558.69;;;9.17;76.17
70968;BME280;58629;48.808;8.820;2022-12-29T05:02:55;96552.75;;;9.13;76.40
70968;BME280;58629;48.808;8.820;2022-12-29T05:05:20;96557.28;;;9.12;76.37
70968;BME280;58629;48.808;8.820;2022-12-29T05:07:46;96548.84;;;9.17;76.43
70968;BME280;58629;48.808;8.820;2022-12-29T05:10:11;96542.84;;;9.17;76.50
70968;BME280;58629;48.808;8.820;2022-12-29T05:12:38;96558.53;;;9.24;76.39
70968;BME280;58629;48.808;8.820;2022-12-29T05:15:05;96564.97;;;9.23;76.84
70968;BME280;58629;48.808;8.820;2022-12-29T05:17:31;96560.66;;;9.13;77.03
70968;BME280;58629;48.808;8.820;2022-12-29T05:19:57;96562.38;;;9.19;77.31
70968;BME280;58629;48.808;8.820;2022-12-29T05:22:22;96568.84;;;9.18;77.14
70968;BME280;58629;48.808;8.820;2022-12-29T05:24:47;96556.94;;;9.10;77.41
70968;BME280;58629;48.808;8.820;2022-12-29T05:27:13;96558.97;;;9.03;77.99
70968;BME280;58629;48.808;8.820;2022-12-29T05:29:39;96560.94;;;8.99;78.09
70968;BME280;58629;48.808;8.820;2022-12-29T05:32:04;96558.78;;;8.94;78.70
70968;BME280;58629;48.808;8.820;2022-12-29T05:34:30;96563.38;;;8.90;79.03
70968;BME280;58629;48.808;8.820;2022-12-29T05:36:55;96573.56;;;8.91;78.98
70968;BME280;58629;48.808;8.820;2022-12-29T05:39:20;96576.25;;;8.88;78.97
70968;BME280;58629;48.808;8.820;2022-12-29T05:41:45;96574.03;;;8.86;79.46
70968;BME280;58629;48.808;8.820;2022-12-29T05:44:11;96571.38;;;8.86;79.81
70968;BME280;58629;48.808;8.820;2022-12-29T05:46:36;96567.66;;;8.84;78.92
70968;BME280;58629;48.808;8.820;2022-12-29T05:49:02;96556.38;;;8.83;79.62
70968;BME280;58629;48.808;8.820;2022-12-29T05:51:27;96560.06;;;8.86;79.24
70968;BME280;58629;48.808;8.820;2022-12-29T05:53:52;96548.31;;;8.70;79.71
70968;BME280;58629;48.808;8.820;2022-12-29T05:56:17;96546.22;;;8.62;80.39
70968;BME280;58629;48.808;8.820;2022-12-29T05:58:43;96534.72;;;8.52;80.75
70968;BME280;58629;48.808;8.820;2022-12-29T06:01:08;96533.34;;;8.64;79.93
70968;BME280;58629;48.808;8.820;2022-12-29T06:03:33;96539.13;;;8.59;80.49
70968;BME280;58629;48.808;8.820;2022-12-29T06:05:59;96542.09;;;8.61;79.87
70968;BME280;58629;48.808;8.820;2022-12-29T06:08:24;96550.53;;;8.52;80.33
70968;BME280;58629;48.808;8.820;2022-12-29T06:10:50;96550.97;;;8.51;80.31
70968;BME280;58629;48.808;8.820;2022-12-29T06:13:15;96554.19;;;8.39;81.36
70968;BME280;58629;48.808;8.820;2022-12-29T06:15:41;96551.38;;;8.30;81.41
70968;BME280;58629;48.808;8.820;2022-12-29T06:18:06;96547.22;;;8.29;81.64
70968;BME280;58629;48.808;8.820;2022-12-29T06:20:32;96554.22;;;8.16;81.56
70968;BME280;58629;48.808;8.820;2022-12-29T06:22:57;96547.78;;;8.17;82.09
70968;BME280;58629;48.808;8.820;2022-12-29T06:25:22;96548.72;;;8.07;82.91
70968;BME280;58629;48.808;8.820;2022-12-29T06:27:47;96542.47;;;7.97;82.70
70968;BME280;58629;48.808;8.820;2022-12-29T06:30:13;96541.09;;;7.89;83.82
70968;BME280;58629;48.808;8.820;2022-12-29T06:32:39;96544.66;;;7.79;84.26
70968;BME280;58629;48.808;8.820;2022-12-29T06:35:05;96544.03;;;7.71;84.05
70968;BME280;58629;48.808;8.820;2022-12-29T06:37:31;96541.97;;;7.82;83.77
70968;BME280;58629;48.808;8.820;2022-12-29T06:39:57;96551.81;;;7.78;83.89
70968;BME280;58629;48.808;8.820;2022-12-29T06:42:23;96539.44;;;7.99;83.12
70968;BME280;58629;48.808;8.820;2022-12-29T06:44:48;96540.59;;;7.98;83.00
70968;BME280;58629;48.808;8.820;2022-12-29T06:47:13;96536.19;;;7.91;83.29
70968;BME280;58629;48.808;8.820;2022-12-29T06:49:39;96544.50;;;7.89;82.63
70968;BME280;58629;48.808;8.820;2022-12-29T06:52:04;96544.69;;;7.99;82.53
70968;BME280;58629;48.808;8.820;2022-12-29T06:54:30;96547.69;;;8.01;82.50
70968;BME280;58629;48.808;8.820;2022-12-29T06:56:55;96536.06;;;7.98;82.30
70968;BME280;58629;48.808;8.820;2022-12-29T06:59:21;96550.09;;;7.92;82.87
70968;BME280;58629;48.808;8.820;2022-12-29T07:01:46;96541.84;;;7.89;82.45
70968;BME280;58629;48.808;8.820;2022-12-29T07:04:11;96528.75;;;7.86;83.38
70968;BME280;58629;48.808;8.820;2022-12-29T07:06:37;96543.56;;;7.76;83.63
70968;BME280;58629;48.808;8.820;2022-12-29T07:09:02;96543.97;;;7.75;83.86
70968;BME280;58629;48.808;8.820;2022-12-29T07:11:27;96548.09;;;7.76;82.99
70968;BME280;58629;48.808;8.820;2022-12-29T07:13:52;96548.91;;;7.73;83.46
70968;BME280;58629;48.808;8.820;2022-12-29T07:16:18;96554.84;;;7.77;82.68
70968;BME280;58629;48.808;8.820;2022-12-29T07:18:43;96555.72;;;7.70;83.47
70968;BME280;58629;48.808;8.820;2022-12-29T07:21:09;96560.75;;;7.84;82.51
70968;BME280;58629;48.808;8.820;2022-12-29T07:23:34;96565.41;;;7.77;82.43
70968;BME280;58629;48.808;8.820;2022-12-29T07:26:01;96543.13;;;7.81;82.75
70968;BME280;58629;48.808;8.820;2022-12-29T07:28:27;96557.44;;;7.80;83.28
70968;BME280;58629;48.808;8.820;2022-12-29T07:30:52;96565.84;;;7.95;81.82
70968;BME280;58629;48.808;8.820;2022-12-29T07:33:18;96558.78;;;7.92;82.05
70968;BME280;58629;48.808;8.820;2022-12-29T07:35:43;96563.22;;;7.95;81.39
70968;BME280;58629;48.808;8.820;2022-12-29T07:38:08;96565.69;;;8.06;80.87
70968;BME280;58629;48.808;8.820;2022-12-29T07:40:33;96571.66;;;8.10;80.56
70968;BME280;58629;48.808;8.820;2022-12-29T07:42:59;96570.31;;;8.21;79.66
70968;BME280;58629;48.808;8.820;2022-12-29T07:45:24;96572.47;;;8.30;79.37
70968;BME280;58629;48.808;8.820;2022-12-29T07:47:49;96575.03;;;8.33;79.14
70968;BME280;58629;48.808;8.820;2022-12-29T07:50:15;96576.50;;;8.34;78.73
70968;BME280;58629;48.808;8.820;2022-12-29T07:52:40;96565.97;;;8.34;79.27
70968;BME280;58629;48.808;8.820;2022-12-29T07:55:06;96571.31;;;8.31;79.29
70968;BME280;58629;48.808;8.820;2022-12-29T07:57:31;96573.41;;;8.39;79.05
70968;BME280;58629;48.808;8.820;2022-12-29T07:59:57;96577.81;;;8.46;78.23
70968;BME280;58629;48.808;8.820;2022-12-29T08:02:22;96592.44;;;8.50;77.88
70968;BME280;58629;48.808;8.820;2022-12-29T08:04:47;96597.03;;;8.46;77.95
70968;BME280;58629;48.808;8.820;2022-12-29T08:07:12;96590.06;;;8.56;77.52
70968;BME280;58629;48.808;8.820;2022-12-29T08:09:38;96590.75;;;8.60;77.05
70968;BME280;58629;48.808;8.820;2022-12-29T08:12:03;96601.84;;;8.71;76.83
70968;BME280;58629;48.808;8.820;2022-12-29T08:14:28;96597.25;;;8.75;76.82
70968;BME280;58629;48.808;8.820;2022-12-29T08:16:54;96594.88;;;8.81;76.48
70968;BME280;58629;48.808;8.820;2022-12-29T08:19:19;96595.34;;;8.95;75.24
70968;BME280;58629;48.808;8.820;2022-12-29T08:21:44;96602.28;;;9.05;74.50
70968;BME280;58629;48.808;8.820;2022-12-29T08:24:09;96582.59;;;9.10;74.97
70968;BME280;58629;48.808;8.820;2022-12-29T08:26:35;96576.34;;;9.20;74.12
70968;BME280;58629;48.808;8.820;2022-12-29T08:29:00;96569.59;;;9.19;74.61
70968;BME280;58629;48.808;8.820;2022-12-29T08:31:25;96584.19;;;9.23;74.00
70968;BME280;58629;48.808;8.820;2022-12-29T08:33:51;96575.78;;;9.28;73.62
70968;BME280;58629;48.808;8.820;2022-12-29T08:36:16;96580.66;;;9.30;73.73
70968;BME280;58629;48.808;8.820;2022-12-29T08:38:42;96582.09;;;9.34;73.13
70968;BME280;58629;48.808;8.820;2022-12-29T08:41:07;96573.41;;;9.34;74.04
70968;BME280;58629;48.808;8.820;2022-12-29T08:43:32;96581.28;;;9.53;71.46
70968;BME280;58629;48.808;8.820;2022-12-29T08:45:58;96592.28;;;9.68;71.31
70968;BME280;58629;48.808;8.820;2022-12-29T08:48:24;96585.50;;;9.67;71.82
70968;BME280;58629;48.808;8.820;2022-12-29T08:50:49;96585.69;;;9.76;72.86
70968;BME280;58629;48.808;8.820;2022-12-29T08:53:15;96590.63;;;9.90;70.69
70968;BME280;58629;48.808;8.820;2022-12-29T08:55:41;96591.13;;;10.01;71.38
70968;BME280;58629;48.808;8.820;2022-12-29T08:58:06;96590.22;;;10.24;70.02
70968;BME280;58629;48.808;8.820;2022-12-29T09:00:31;96604.38;;;10.46;69.38
70968;BME280;58629;48.808;8.820;2022-12-29T09:02:57;96602.38;;;10.50;69.08
70968;BME280;58629;48.808;8.820;2022-12-29T09:05:22;96610.81;;;10.61;68.66
70968;BME280;58629;48.808;8.820;2022-12-29T09:07:47;96605.88;;;10.76;67.98
70968;BME280;58629;48.808;8.820;2022-12-29T09:10:13;96607.63;;;11.07;65.39
70968;BME280;58629;48.808;8.820;2022-12-29T09:12:38;96602.25;;;11.11;67.61
70968;BME280;58629;48.808;8.820;2022-12-29T09:15:04;96607.56;;;11.23;66.33
70968;BME280;58629;48.808;8.820;2022-12-29T09:17:30;96613.63;;;11.24;66.19
70968;BME280;58629;48.808;8.820;2022-12-29T09:20:18;96615.41;;;11.27;66.17
70968;BME280;58629;48.808;8.820;2022-12-29T09:22:44;96621.28;;;11.34;66.42
70968;BME280;58629;48.808;8.820;2022-12-29T09:25:10;96618.31;;;11.32;66.45
70968;BME280;58629;48.808;8.820;2022-12-29T09:27:36;96629.22;;;11.47;66.07
70968;BME280;58629;48.808;8.820;2022-12-29T09:30:04;96632.09;;;11.53;65.62
70968;BME280;58629;48.808;8.820;2022-12-29T09:32:30;96635.72;;;11.59;65.29
70968;BME280;58629;48.808;8.820;2022-12-29T09:34:56;96636.13;;;11.57;69.03
70968;BME280;58629;48.808;8.820;2022-12-29T09:37:21;96652.78;;;11.58;68.11
70968;BME280;58629;48.808;8.820;2022-12-29T09:39:46;96640.91;;;11.62;67.48
70968;BME280;58629;48.808;8.820;2022-12-29T09:45:04;96643.38;;;11.69;67.02
70968;BME280;58629;48.808;8.820;2022-12-29T09:47:34;96642.09;;;11.74;69.23
70968;BME280;58629;48.808;8.820;2022-12-29T09:50:15;96634.16;;;11.74;65.63
70968;BME280;58629;48.808;8.820;2022-12-29T09:52:50;96622.59;;;11.68;68.17
70968;BME280;58629;48.808;8.820;2022-12-29T09:55:21;96629.78;;;11.67;67.81
70968;BME280;58629;48.808;8.820;2022-12-29T09:57:53;96648.88;;;11.62;68.16
70968;BME280;58629;48.808;8.820;2022-12-29T10:00:21;96641.53;;;11.54;69.84
70968;BME280;58629;48.808;8.820;2022-12-29T10:03:00;96650.53;;;11.44;72.18
70968;BME280;58629;48.808;8.820;2022-12-29T10:08:41;96636.53;;;11.30;73.89
70968;BME280;58629;48.808;8.820;2022-12-29T10:11:29;96626.44;;;11.25;74.82
70968;BME280;58629;48.808;8.820;2022-12-29T10:17:01;96653.44;;;11.08;74.70
70968;BME280;58629;48.808;8.820;2022-12-29T10:23:08;96650.47;;;11.06;75.23
70968;BME280;58629;48.808;8.820;2022-12-29T10:25:38;96654.19;;;11.08;75.13
70968;BME280;58629;48.808;8.820;2022-12-29T10:28:17;96652.72;;;11.20;77.76
70968;BME280;58629;48.808;8.820;2022-12-29T10:30:46;96661.28;;;11.11;77.16
70968;BME280;58629;48.808;8.820;2022-12-29T10:33:17;96663.22;;;11.11;76.68
70968;BME280;58629;48.808;8.820;2022-12-29T10:35:43;96669.44;;;11.04;76.66
70968;BME280;58629;48.808;8.820;2022-12-29T10:38:22;96655.53;;;11.00;77.32
70968;BME280;58629;48.808;8.820;2022-12-29T10:41:13;96663.75;;;10.90;78.76
70968;BME280;58629;48.808;8.820;2022-12-29T10:43:48;96656.78;;;10.96;81.47
70968;BME280;58629;48.808;8.820;2022-12-29T10:46:18;96642.09;;;11.07;79.16
70968;BME280;58629;48.808;8.820;2022-12-29T10:48:44;96642.28;;;11.00;78.65
70968;BME280;58629;48.808;8.820;2022-12-29T10:51:22;96640.94;;;11.08;77.12
70968;BME280;58629;48.808;8.820;2022-12-29T10:53:53;96635.09;;;11.13;76.57
70968;BME280;58629;48.808;8.820;2022-12-29T10:56:40;96640.09;;;11.11;76.24
70968;BME280;58629;48.808;8.820;2022-12-29T10:59:16;96648.19;;;11.20;75.35
70968;BME280;58629;48.808;8.820;2022-12-29T11:07:10;96638.22;;;11.37;74.19
70968;BME280;58629;48.808;8.820;2022-12-29T11:09:37;96647.78;;;11.34;76.85
70968;BME280;58629;48.808;8.820;2022-12-29T11:12:19;96643.00;;;11.42;73.13
70968;BME280;58629;48.808;8.820;2022-12-29T11:14:45;96643.53;;;11.37;71.74
70968;BME280;58629;48.808;8.820;2022-12-29T11:17:16;96648.50;;;11.35;71.96
70968;BME280;58629;48.808;8.820;2022-12-29T11:19:42;96654.22;;;11.33;74.15
70968;BME280;58629;48.808;8.820;2022-12-29T11:22:19;96644.28;;;11.38;70.06
70968;BME280;58629;48.808;8.820;2022-12-29T11:24:46;96669.84;;;11.44;69.98
70968;BME280;58629;48.808;8.820;2022-12-29T11:27:18;96672.66;;;11.66;69.69
70968;BME280;58629;48.808;8.820;2022-12-29T11:29:46;96663.59;;;11.63;68.02
70968;BME280;58629;48.808;8.820;2022-12-29T11:32:25;96679.19;;;11.49;66.94
70968;BME280;58629;48.808;8.820;2022-12-29T11:34:51;96663.56;;;11.38;68.04
70968;BME280;58629;48.808;8.820;2022-12-29T11:37:27;96673.81;;;11.23;69.25
70968;BME280;58629;48.808;8.820;2022-12-29T11:40:03;96673.44;;;11.25;68.34
70968;BME280;58629;48.808;8.820;2022-12-29T11:42:51;96666.50;;;11.15;69.17
70968;BME280;58629;48.808;8.820;2022-12-29T11:45:23;96663.09;;;11.14;70.21
70968;BME280;58629;48.808;8.820;2022-12-29T11:47:53;96682.91;;;11.10;71.70
70968;BME280;58629;48.808;8.820;2022-12-29T11:50:21;96674.50;;;10.99;72.85
70968;BME280;58629;48.808;8.820;2022-12-29T11:52:49;96664.31;;;10.97;72.74
70968;BME280;58629;48.808;8.820;2022-12-29T11:55:21;96675.97;;;10.87;75.10
70968;BME280;58629;48.808;8.820;2022-12-29T11:57:50;96669.25;;;10.83;75.29
70968;BME280;58629;48.808;8.820;2022-12-29T12:00:21;96647.00;;;10.80;76.26
70968;BME280;58629;48.808;8.820;2022-12-29T12:02:58;96644.34;;;10.80;77.31
70968;BME280;58629;48.808;8.820;2022-12-29T12:05:33;96646.94;;;10.68;77.17
70968;BME280;58629;48.808;8.820;2022-12-29T12:08:29;96660.50;;;10.70;78.22
70968;BME280;58629;48.808;8.820;2022-12-29T12:11:04;96661.34;;;10.67;77.37
70968;BME280;58629;48.808;8.820;2022-12-29T12:16:08;96648.69;;;10.58;77.45
70968;BME280;58629;48.808;8.820;2022-12-29T12:18:41;96648.31;;;10.60;77.69
70968;BME280;58629;48.808;8.820;2022-12-29T12:21:14;96643.63;;;10.64;76.79
70968;BME280;58629;48.808;8.820;2022-12-29T12:26:29;96640.91;;;10.96;77.44
70968;BME280;58629;48.808;8.820;2022-12-29T12:29:18;96633.97;;;11.27;76.62
70968;BME280;58629;48.808;8.820;2022-12-29T12:31:51;96628.97;;;11.29;74.54
70968;BME280;58629;48.808;8.820;2022-12-29T12:34:23;96616.19;;;11.40;73.56
70968;BME280;58629;48.808;8.820;2022-12-29T12:40:12;96621.38;;;11.56;71.96
70968;BME280;58629;48.808;8.820;2022-12-29T12:51:13;96618.19;;;11.61;69.80
70968;BME280;58629;48.808;8.820;2022-12-29T12:59:29;96600.59;;;11.55;70.04
70968;BME280;58629;48.808;8.820;2022-12-29T13:02:10;96604.41;;;11.54;69.05
70968;BME280;58629;48.808;8.820;2022-12-29T13:04:56;96605.28;;;11.51;70.21
70968;BME280;58629;48.808;8.820;2022-12-29T13:10:35;96609.28;;;11.43;68.56
70968;BME280;58629;48.808;8.820;2022-12-29T13:16:19;96591.78;;;11.45;68.00
70968;BME280;58629;48.808;8.820;2022-12-29T13:24:24;96584.66;;;11.29;69.98
70968;BME280;58629;48.808;8.820;2022-12-29T13:27:01;96602.25;;;11.23;70.82
70968;BME280;58629;48.808;8.820;2022-12-29T13:29:36;96600.97;;;11.15;71.73
70968;BME280;58629;48.808;8.820;2022-12-29T13:32:24;96598.22;;;11.06;72.84
70968;BME280;58629;48.808;8.820;2022-12-29T13:37:29;96589.91;;;10.92;73.93
70968;BME280;58629;48.808;8.820;2022-12-29T13:40:02;96593.19;;;10.83;74.51
70968;BME280;58629;48.808;8.820;2022-12-29T13:42:29;96598.28;;;10.90;75.95
70968;BME280;58629;48.808;8.820;2022-12-29T13:44:59;96591.19;;;10.87;74.39
70968;BME280;58629;48.808;8.820;2022-12-29T13:47:33;96583.25;;;10.87;73.80
70968;BME280;58629;48.808;8.820;2022-12-29T13:50:03;96585.91;;;10.87;77.14
70968;BME280;58629;48.808;8.820;2022-12-29T13:52:41;96588.94;;;10.86;76.41
70968;BME280;58629;48.808;8.820;2022-12-29T13:58:22;96593.25;;;11.08;77.97
70968;BME280;58629;48.808;8.820;2022-12-29T14:01:03;96591.56;;;11.14;76.29
70968;BME280;58629;48.808;8.820;2022-12-29T14:03:47;96602.97;;;11.11;75.82
70968;BME280;58629;48.808;8.820;2022-12-29T14:06:30;96601.53;;;11.23;76.99
70968;BME280;58629;48.808;8.820;2022-12-29T14:09:04;96601.28;;;11.05;76.14
70968;BME280;58629;48.808;8.820;2022-12-29T14:11:32;96601.53;;;11.23;77.51
70968;BME280;58629;48.808;8.820;2022-12-29T14:13:59;96614.88;;;11.19;76.80
70968;BME280;58629;48.808;8.820;2022-12-29T14:16:35;96609.50;;;11.23;77.87
70968;BME280;58629;48.808;8.820;2022-12-29T14:19:09;96604.19;;;11.23;77.29
70968;BME280;58629;48.808;8.820;2022-12-29T14:21:37;96610.31;;;11.20;77.80
70968;BME280;58629;48.808;8.820;2022-12-29T14:35:39;96601.94;;;11.21;78.77
70968;BME280;58629;48.808;8.820;2022-12-29T14:38:26;96597.50;;;11.31;78.98
70968;BME280;58629;48.808;8.820;2022-12-29T14:40:52;96596.69;;;11.47;80.13
70968;BME280;58629;48.808;8.820;2022-12-29T14:43:21;96593.81;;;11.54;79.11
70968;BME280;58629;48.808;8.820;2022-12-29T14:45:54;96596.78;;;11.56;78.48
70968;BME280;58629;48.808;8.820;2022-12-29T14:48:41;96591.78;;;11.58;77.67
70968;BME280;58629;48.808;8.820;2022-12-29T14:51:21;96595.94;;;11.46;78.26
70968;BME280;58629;48.808;8.820;2022-12-29T14:53:52;96591.78;;;11.45;77.61
70968;BME280;58629;48.808;8.820;2022-12-29T14:56:20;96598.25;;;11.31;79.72